Airport View

Enter AWOS ICAO identifier for current METAR.

ex. KFNL

KLAL 051250Z 22003KT 10SM SKC 26/24 A3003

5 Aug 2020 13:15

Frequency: 118.025

Phone: 863-834-2030

Other Area AWOS: KPCM - KBOW - KGIF - KZPH

TAF KLAL 051120Z 0512/0612 VRB03KT P6SM SKC FM051400 VRB04KT P6SM SCT030 SCT250 FM051700 19005KT P6SM VCTS SCT035CB SCT250 FM060100 VRB04KT P6SM SCT030 SCT120 BKN250 FM060400 VRB03KT P6SM SCT250